sensor_id;sensor_type;location;lat;lon;timestamp;pressure;altitude;pressure_sealevel;temperature;humidity
74336;BME280;62755;-33.398;-70.572;2023-03-19T00:00:04;93041.06;;;28.40;34.96
74336;BME280;62755;-33.398;-70.572;2023-03-19T00:02:55;93040.06;;;28.24;35.18
74336;BME280;62755;-33.398;-70.572;2023-03-19T00:05:50;93044.97;;;28.13;35.96
74336;BME280;62755;-33.398;-70.572;2023-03-19T00:08:40;93048.25;;;28.11;35.93
74336;BME280;62755;-33.398;-70.572;2023-03-19T00:11:29;93047.13;;;28.20;35.21
74336;BME280;62755;-33.398;-70.572;2023-03-19T00:14:21;93042.16;;;28.18;35.61
74336;BME280;62755;-33.398;-70.572;2023-03-19T00:17:11;93049.41;;;28.03;36.00
74336;BME280;62755;-33.398;-70.572;2023-03-19T00:20:02;93047.34;;;28.22;35.52
74336;BME280;62755;-33.398;-70.572;2023-03-19T00:22:51;93050.69;;;28.33;35.75
74336;BME280;62755;-33.398;-70.572;2023-03-19T00:25:40;93055.06;;;28.42;35.61
74336;BME280;62755;-33.398;-70.572;2023-03-19T00:28:30;93053.75;;;28.30;35.36
74336;BME280;62755;-33.398;-70.572;2023-03-19T00:31:21;93056.53;;;28.11;36.14
74336;BME280;62755;-33.398;-70.572;2023-03-19T00:34:10;93054.44;;;28.17;36.09
74336;BME280;62755;-33.398;-70.572;2023-03-19T00:37:00;93046.59;;;28.21;36.29
74336;BME280;62755;-33.398;-70.572;2023-03-19T00:39:50;93054.97;;;28.16;35.99
74336;BME280;62755;-33.398;-70.572;2023-03-19T00:42:39;93056.91;;;27.83;36.21
74336;BME280;62755;-33.398;-70.572;2023-03-19T00:45:30;93046.66;;;28.03;36.39
74336;BME280;62755;-33.398;-70.572;2023-03-19T00:48:21;93061.16;;;28.03;36.74
74336;BME280;62755;-33.398;-70.572;2023-03-19T00:51:11;93057.34;;;27.88;36.43
74336;BME280;62755;-33.398;-70.572;2023-03-19T00:54:00;93047.47;;;27.79;36.53
74336;BME280;62755;-33.398;-70.572;2023-03-19T00:56:49;93056.78;;;27.95;35.87
74336;BME280;62755;-33.398;-70.572;2023-03-19T00:59:38;93055.75;;;27.98;36.90
74336;BME280;62755;-33.398;-70.572;2023-03-19T01:02:28;93052.28;;;27.92;36.53
74336;BME280;62755;-33.398;-70.572;2023-03-19T01:05:19;93055.03;;;27.92;36.70
74336;BME280;62755;-33.398;-70.572;2023-03-19T01:08:08;93063.03;;;27.76;36.38
74336;BME280;62755;-33.398;-70.572;2023-03-19T01:11:04;93055.34;;;27.69;36.40
74336;BME280;62755;-33.398;-70.572;2023-03-19T01:13:53;93054.25;;;27.59;36.65
74336;BME280;62755;-33.398;-70.572;2023-03-19T01:16:43;93051.41;;;27.65;36.79
74336;BME280;62755;-33.398;-70.572;2023-03-19T01:19:33;93049.09;;;27.88;36.94
74336;BME280;62755;-33.398;-70.572;2023-03-19T01:22:24;93052.00;;;27.76;37.37
74336;BME280;62755;-33.398;-70.572;2023-03-19T01:25:14;93032.94;;;27.78;36.78
74336;BME280;62755;-33.398;-70.572;2023-03-19T01:28:03;93041.47;;;27.94;36.70
74336;BME280;62755;-33.398;-70.572;2023-03-19T01:30:57;93034.28;;;27.53;38.10
74336;BME280;62755;-33.398;-70.572;2023-03-19T01:33:46;93033.22;;;27.56;37.97
74336;BME280;62755;-33.398;-70.572;2023-03-19T01:36:35;93026.38;;;27.44;37.92
74336;BME280;62755;-33.398;-70.572;2023-03-19T01:39:26;93029.81;;;27.50;37.78
74336;BME280;62755;-33.398;-70.572;2023-03-19T01:42:16;93018.34;;;27.46;37.92
74336;BME280;62755;-33.398;-70.572;2023-03-19T01:45:32;93032.56;;;27.50;37.56
74336;BME280;62755;-33.398;-70.572;2023-03-19T01:48:28;93018.88;;;27.21;38.12
74336;BME280;62755;-33.398;-70.572;2023-03-19T01:51:22;93013.69;;;27.17;38.38
74336;BME280;62755;-33.398;-70.572;2023-03-19T01:54:15;93005.09;;;27.02;39.12
74336;BME280;62755;-33.398;-70.572;2023-03-19T01:57:09;93006.06;;;27.05;39.04
74336;BME280;62755;-33.398;-70.572;2023-03-19T02:00:00;93003.09;;;27.03;39.16
74336;BME280;62755;-33.398;-70.572;2023-03-19T02:02:53;92999.81;;;27.04;38.81
74336;BME280;62755;-33.398;-70.572;2023-03-19T02:05:45;93002.00;;;26.87;38.93
74336;BME280;62755;-33.398;-70.572;2023-03-19T02:08:37;92986.19;;;26.93;38.89
74336;BME280;62755;-33.398;-70.572;2023-03-19T02:11:27;93003.97;;;26.92;38.95
74336;BME280;62755;-33.398;-70.572;2023-03-19T02:14:18;92999.22;;;27.11;38.27
74336;BME280;62755;-33.398;-70.572;2023-03-19T02:17:07;92993.16;;;27.18;38.51
74336;BME280;62755;-33.398;-70.572;2023-03-19T02:20:00;92990.00;;;27.09;38.34
74336;BME280;62755;-33.398;-70.572;2023-03-19T02:22:57;92989.84;;;27.01;38.18
74336;BME280;62755;-33.398;-70.572;2023-03-19T02:26:01;93000.06;;;27.06;38.29
74336;BME280;62755;-33.398;-70.572;2023-03-19T02:28:52;92996.22;;;26.90;38.88
74336;BME280;62755;-33.398;-70.572;2023-03-19T02:31:42;92989.38;;;26.78;39.13
74336;BME280;62755;-33.398;-70.572;2023-03-19T02:34:36;92982.75;;;26.63;38.80
74336;BME280;62755;-33.398;-70.572;2023-03-19T02:37:28;92989.63;;;26.51;39.47
74336;BME280;62755;-33.398;-70.572;2023-03-19T02:40:20;92989.50;;;26.38;39.58
74336;BME280;62755;-33.398;-70.572;2023-03-19T02:43:12;92988.94;;;26.45;38.96
74336;BME280;62755;-33.398;-70.572;2023-03-19T02:46:03;92988.94;;;26.45;39.12
74336;BME280;62755;-33.398;-70.572;2023-03-19T02:48:54;92980.44;;;26.43;38.79
74336;BME280;62755;-33.398;-70.572;2023-03-19T02:51:43;92984.22;;;26.40;39.30
74336;BME280;62755;-33.398;-70.572;2023-03-19T02:54:33;92982.38;;;26.48;38.43
74336;BME280;62755;-33.398;-70.572;2023-03-19T02:57:22;92984.81;;;26.57;38.13
74336;BME280;62755;-33.398;-70.572;2023-03-19T03:00:14;92982.16;;;26.46;38.16
74336;BME280;62755;-33.398;-70.572;2023-03-19T03:03:05;92981.84;;;26.55;38.21
74336;BME280;62755;-33.398;-70.572;2023-03-19T03:05:55;92979.09;;;26.55;38.16
74336;BME280;62755;-33.398;-70.572;2023-03-19T03:08:44;92984.69;;;26.68;38.56
74336;BME280;62755;-33.398;-70.572;2023-03-19T03:11:34;92987.22;;;26.66;38.49
74336;BME280;62755;-33.398;-70.572;2023-03-19T03:14:23;92976.78;;;26.35;38.75
74336;BME280;62755;-33.398;-70.572;2023-03-19T03:17:14;92977.94;;;26.45;38.85
74336;BME280;62755;-33.398;-70.572;2023-03-19T03:20:05;92985.44;;;26.44;38.51
74336;BME280;62755;-33.398;-70.572;2023-03-19T03:22:55;92968.19;;;26.20;38.65
74336;BME280;62755;-33.398;-70.572;2023-03-19T03:25:44;92990.50;;;26.05;39.58
74336;BME280;62755;-33.398;-70.572;2023-03-19T03:28:36;92976.19;;;26.18;39.34
74336;BME280;62755;-33.398;-70.572;2023-03-19T03:31:25;92968.41;;;26.22;39.04
74336;BME280;62755;-33.398;-70.572;2023-03-19T03:34:17;92972.44;;;25.85;39.32
74336;BME280;62755;-33.398;-70.572;2023-03-19T03:37:06;92964.06;;;26.02;38.77
74336;BME280;62755;-33.398;-70.572;2023-03-19T03:39:56;92971.72;;;26.15;39.04
74336;BME280;62755;-33.398;-70.572;2023-03-19T03:42:45;92972.78;;;26.00;39.69
74336;BME280;62755;-33.398;-70.572;2023-03-19T03:45:35;92971.72;;;26.15;39.27
74336;BME280;62755;-33.398;-70.572;2023-03-19T03:48:24;92959.41;;;26.21;39.21
74336;BME280;62755;-33.398;-70.572;2023-03-19T03:51:16;92956.38;;;26.25;38.52
74336;BME280;62755;-33.398;-70.572;2023-03-19T03:54:05;92958.19;;;26.17;39.06
74336;BME280;62755;-33.398;-70.572;2023-03-19T03:56:54;92958.09;;;25.98;39.57
74336;BME280;62755;-33.398;-70.572;2023-03-19T03:59:44;92953.22;;;26.15;39.09
74336;BME280;62755;-33.398;-70.572;2023-03-19T04:02:33;92949.63;;;25.96;39.62
74336;BME280;62755;-33.398;-70.572;2023-03-19T04:05:22;92956.50;;;25.78;39.61
74336;BME280;62755;-33.398;-70.572;2023-03-19T04:08:14;92956.97;;;25.82;39.79
74336;BME280;62755;-33.398;-70.572;2023-03-19T04:11:06;92932.47;;;25.84;39.84
74336;BME280;62755;-33.398;-70.572;2023-03-19T04:13:56;92958.22;;;25.81;39.88
74336;BME280;62755;-33.398;-70.572;2023-03-19T04:16:45;92953.47;;;25.82;40.57
74336;BME280;62755;-33.398;-70.572;2023-03-19T04:19:35;92939.16;;;25.59;40.91
74336;BME280;62755;-33.398;-70.572;2023-03-19T04:22:24;92948.25;;;25.78;40.58
74336;BME280;62755;-33.398;-70.572;2023-03-19T04:25:15;92939.09;;;25.70;39.88
74336;BME280;62755;-33.398;-70.572;2023-03-19T04:28:05;92933.81;;;25.72;40.45
74336;BME280;62755;-33.398;-70.572;2023-03-19T04:30:59;92919.81;;;25.76;39.92
74336;BME280;62755;-33.398;-70.572;2023-03-19T04:33:48;92917.47;;;25.85;40.21
74336;BME280;62755;-33.398;-70.572;2023-03-19T04:36:38;92920.03;;;25.78;39.88
74336;BME280;62755;-33.398;-70.572;2023-03-19T04:39:27;92909.00;;;25.83;39.68
74336;BME280;62755;-33.398;-70.572;2023-03-19T04:42:19;92915.53;;;25.80;39.72
74336;BME280;62755;-33.398;-70.572;2023-03-19T04:45:09;92914.03;;;25.79;38.92
74336;BME280;62755;-33.398;-70.572;2023-03-19T04:47:58;92918.50;;;25.82;38.66
74336;BME280;62755;-33.398;-70.572;2023-03-19T04:50:48;92911.28;;;25.79;38.69
74336;BME280;62755;-33.398;-70.572;2023-03-19T04:53:39;92904.16;;;25.65;39.16
74336;BME280;62755;-33.398;-70.572;2023-03-19T04:56:28;92903.44;;;25.65;39.40
74336;BME280;62755;-33.398;-70.572;2023-03-19T04:59:19;92905.03;;;25.49;39.40
74336;BME280;62755;-33.398;-70.572;2023-03-19T05:02:09;92908.91;;;25.65;38.89
74336;BME280;62755;-33.398;-70.572;2023-03-19T05:04:58;92912.81;;;25.45;39.59
74336;BME280;62755;-33.398;-70.572;2023-03-19T05:07:48;92902.69;;;25.23;40.21
74336;BME280;62755;-33.398;-70.572;2023-03-19T05:10:37;92901.59;;;25.43;40.29
74336;BME280;62755;-33.398;-70.572;2023-03-19T05:13:26;92898.06;;;25.48;39.99
74336;BME280;62755;-33.398;-70.572;2023-03-19T05:16:18;92902.31;;;25.49;39.54
74336;BME280;62755;-33.398;-70.572;2023-03-19T05:19:07;92888.09;;;25.45;39.05
74336;BME280;62755;-33.398;-70.572;2023-03-19T05:21:56;92892.31;;;25.46;40.16
74336;BME280;62755;-33.398;-70.572;2023-03-19T05:24:46;92884.16;;;25.35;40.03
74336;BME280;62755;-33.398;-70.572;2023-03-19T05:27:35;92868.44;;;25.30;39.36
74336;BME280;62755;-33.398;-70.572;2023-03-19T05:30:24;92875.44;;;25.31;39.97
74336;BME280;62755;-33.398;-70.572;2023-03-19T05:33:16;92874.50;;;25.23;39.85
74336;BME280;62755;-33.398;-70.572;2023-03-19T05:36:06;92881.53;;;25.13;40.05
74336;BME280;62755;-33.398;-70.572;2023-03-19T05:38:55;92873.34;;;25.07;40.42
74336;BME280;62755;-33.398;-70.572;2023-03-19T05:41:45;92864.41;;;25.01;39.75
74336;BME280;62755;-33.398;-70.572;2023-03-19T05:44:34;92866.44;;;24.95;40.71
74336;BME280;62755;-33.398;-70.572;2023-03-19T05:47:23;92863.91;;;24.46;41.49
74336;BME280;62755;-33.398;-70.572;2023-03-19T05:50:15;92865.59;;;24.60;41.97
74336;BME280;62755;-33.398;-70.572;2023-03-19T05:53:04;92864.25;;;24.83;41.41
74336;BME280;62755;-33.398;-70.572;2023-03-19T05:55:54;92856.34;;;24.74;40.79
74336;BME280;62755;-33.398;-70.572;2023-03-19T05:58:43;92861.56;;;24.72;40.79
74336;BME280;62755;-33.398;-70.572;2023-03-19T06:01:34;92863.97;;;24.92;40.50
74336;BME280;62755;-33.398;-70.572;2023-03-19T06:04:23;92862.22;;;24.89;39.77
74336;BME280;62755;-33.398;-70.572;2023-03-19T06:07:14;92853.50;;;24.90;40.34
74336;BME280;62755;-33.398;-70.572;2023-03-19T06:10:05;92866.25;;;24.88;41.19
74336;BME280;62755;-33.398;-70.572;2023-03-19T06:12:54;92855.66;;;25.03;41.40
74336;BME280;62755;-33.398;-70.572;2023-03-19T06:15:44;92856.94;;;25.02;40.70
74336;BME280;62755;-33.398;-70.572;2023-03-19T06:18:33;92859.50;;;25.24;40.52
74336;BME280;62755;-33.398;-70.572;2023-03-19T06:21:23;92857.47;;;25.30;40.85
74336;BME280;62755;-33.398;-70.572;2023-03-19T06:24:17;92857.31;;;25.17;41.11
74336;BME280;62755;-33.398;-70.572;2023-03-19T06:27:06;92861.38;;;25.05;39.83
74336;BME280;62755;-33.398;-70.572;2023-03-19T06:29:56;92856.69;;;25.00;40.25
74336;BME280;62755;-33.398;-70.572;2023-03-19T06:32:45;92853.72;;;24.98;40.37
74336;BME280;62755;-33.398;-70.572;2023-03-19T06:35:34;92848.94;;;25.04;40.50
74336;BME280;62755;-33.398;-70.572;2023-03-19T06:38:24;92851.53;;;24.85;40.52
74336;BME280;62755;-33.398;-70.572;2023-03-19T06:41:15;92846.34;;;24.71;40.73
74336;BME280;62755;-33.398;-70.572;2023-03-19T06:44:05;92847.91;;;24.61;40.61
74336;BME280;62755;-33.398;-70.572;2023-03-19T06:46:54;92850.13;;;24.62;39.69
74336;BME280;62755;-33.398;-70.572;2023-03-19T06:49:43;92844.63;;;24.73;39.87
74336;BME280;62755;-33.398;-70.572;2023-03-19T06:52:32;92843.34;;;24.69;39.98
74336;BME280;62755;-33.398;-70.572;2023-03-19T06:55:22;92844.38;;;24.66;39.40
74336;BME280;62755;-33.398;-70.572;2023-03-19T06:58:13;92840.16;;;24.65;39.57
74336;BME280;62755;-33.398;-70.572;2023-03-19T07:01:02;92844.50;;;24.38;39.19
74336;BME280;62755;-33.398;-70.572;2023-03-19T07:03:52;92849.81;;;24.14;39.91
74336;BME280;62755;-33.398;-70.572;2023-03-19T07:06:41;92847.63;;;23.96;38.94
74336;BME280;62755;-33.398;-70.572;2023-03-19T07:09:30;92847.13;;;23.97;39.35
74336;BME280;62755;-33.398;-70.572;2023-03-19T07:12:20;92844.09;;;24.17;40.26
74336;BME280;62755;-33.398;-70.572;2023-03-19T07:15:11;92848.03;;;24.27;40.60
74336;BME280;62755;-33.398;-70.572;2023-03-19T07:18:01;92844.25;;;24.41;39.59
74336;BME280;62755;-33.398;-70.572;2023-03-19T07:20:50;92829.09;;;24.29;39.50
74336;BME280;62755;-33.398;-70.572;2023-03-19T07:23:40;92837.78;;;24.33;39.67
74336;BME280;62755;-33.398;-70.572;2023-03-19T07:26:29;92825.44;;;24.05;40.17
74336;BME280;62755;-33.398;-70.572;2023-03-19T07:29:20;92830.69;;;23.97;39.88
74336;BME280;62755;-33.398;-70.572;2023-03-19T07:32:11;92834.16;;;23.92;40.17
74336;BME280;62755;-33.398;-70.572;2023-03-19T07:35:01;92829.50;;;23.76;40.26
74336;BME280;62755;-33.398;-70.572;2023-03-19T07:37:50;92830.69;;;23.92;40.01
74336;BME280;62755;-33.398;-70.572;2023-03-19T07:40:39;92825.94;;;23.92;40.15
74336;BME280;62755;-33.398;-70.572;2023-03-19T07:43:28;92824.22;;;23.95;39.75
74336;BME280;62755;-33.398;-70.572;2023-03-19T07:46:18;92823.53;;;23.72;39.50
74336;BME280;62755;-33.398;-70.572;2023-03-19T07:49:09;92816.09;;;23.39;38.63
74336;BME280;62755;-33.398;-70.572;2023-03-19T07:51:58;92810.13;;;23.13;39.54
74336;BME280;62755;-33.398;-70.572;2023-03-19T07:54:48;92806.88;;;23.15;39.93
74336;BME280;62755;-33.398;-70.572;2023-03-19T07:57:38;92819.81;;;23.09;39.86
74336;BME280;62755;-33.398;-70.572;2023-03-19T08:00:28;92808.88;;;23.03;39.89
74336;BME280;62755;-33.398;-70.572;2023-03-19T08:03:17;92808.88;;;23.14;39.73
74336;BME280;62755;-33.398;-70.572;2023-03-19T08:06:08;92809.41;;;23.35;39.59
74336;BME280;62755;-33.398;-70.572;2023-03-19T08:08:58;92813.31;;;23.67;39.30
74336;BME280;62755;-33.398;-70.572;2023-03-19T08:11:47;92781.25;;;23.40;39.48
74336;BME280;62755;-33.398;-70.572;2023-03-19T08:14:36;92813.31;;;23.67;38.84
74336;BME280;62755;-33.398;-70.572;2023-03-19T08:17:26;92809.16;;;23.33;38.89
74336;BME280;62755;-33.398;-70.572;2023-03-19T08:20:16;92805.91;;;23.40;39.03
74336;BME280;62755;-33.398;-70.572;2023-03-19T08:23:07;92803.63;;;23.49;38.84
74336;BME280;62755;-33.398;-70.572;2023-03-19T08:25:56;92807.38;;;23.52;38.45
74336;BME280;62755;-33.398;-70.572;2023-03-19T08:28:45;92811.38;;;23.40;38.64
74336;BME280;62755;-33.398;-70.572;2023-03-19T08:31:35;92811.13;;;23.54;39.43
74336;BME280;62755;-33.398;-70.572;2023-03-19T08:34:24;92812.34;;;23.59;39.00
74336;BME280;62755;-33.398;-70.572;2023-03-19T08:37:13;92803.16;;;23.57;39.18
74336;BME280;62755;-33.398;-70.572;2023-03-19T08:40:05;92804.88;;;23.54;39.57
74336;BME280;62755;-33.398;-70.572;2023-03-19T08:42:55;92805.16;;;23.34;39.54
74336;BME280;62755;-33.398;-70.572;2023-03-19T08:45:44;92802.88;;;23.60;40.27
74336;BME280;62755;-33.398;-70.572;2023-03-19T08:48:34;92808.09;;;23.69;40.54
74336;BME280;62755;-33.398;-70.572;2023-03-19T08:51:23;92806.31;;;23.77;40.91
74336;BME280;62755;-33.398;-70.572;2023-03-19T08:54:14;92811.03;;;23.82;41.17
74336;BME280;62755;-33.398;-70.572;2023-03-19T08:57:05;92803.56;;;23.83;41.74
74336;BME280;62755;-33.398;-70.572;2023-03-19T08:59:54;92800.31;;;23.84;41.85
74336;BME280;62755;-33.398;-70.572;2023-03-19T09:02:44;92801.59;;;23.78;40.43
74336;BME280;62755;-33.398;-70.572;2023-03-19T09:05:33;92797.91;;;23.64;40.68
74336;BME280;62755;-33.398;-70.572;2023-03-19T09:08:23;92798.34;;;23.79;40.04
74336;BME280;62755;-33.398;-70.572;2023-03-19T09:11:13;92797.88;;;23.75;39.51
74336;BME280;62755;-33.398;-70.572;2023-03-19T09:14:05;92797.69;;;23.57;39.79
74336;BME280;62755;-33.398;-70.572;2023-03-19T09:16:55;92810.34;;;23.65;39.48
74336;BME280;62755;-33.398;-70.572;2023-03-19T09:19:44;92797.41;;;23.60;39.93
74336;BME280;62755;-33.398;-70.572;2023-03-19T09:22:33;92801.31;;;23.87;40.04
74336;BME280;62755;-33.398;-70.572;2023-03-19T09:25:23;92807.59;;;23.65;40.93
74336;BME280;62755;-33.398;-70.572;2023-03-19T09:28:12;92809.84;;;23.61;40.59
74336;BME280;62755;-33.398;-70.572;2023-03-19T09:31:03;92810.34;;;23.43;41.06
74336;BME280;62755;-33.398;-70.572;2023-03-19T09:33:53;92816.34;;;23.52;40.84
74336;BME280;62755;-33.398;-70.572;2023-03-19T09:36:42;92816.06;;;23.45;40.33
74336;BME280;62755;-33.398;-70.572;2023-03-19T09:39:31;92822.78;;;23.55;39.91
74336;BME280;62755;-33.398;-70.572;2023-03-19T09:42:34;92827.28;;;23.36;41.23
74336;BME280;62755;-33.398;-70.572;2023-03-19T09:45:29;92827.28;;;23.58;40.69
74336;BME280;62755;-33.398;-70.572;2023-03-19T09:48:30;92837.94;;;23.73;40.11
74336;BME280;62755;-33.398;-70.572;2023-03-19T09:51:27;92844.19;;;23.51;40.16
74336;BME280;62755;-33.398;-70.572;2023-03-19T09:54:30;92834.00;;;23.68;39.67
74336;BME280;62755;-33.398;-70.572;2023-03-19T09:57:20;92844.94;;;23.74;39.32
74336;BME280;62755;-33.398;-70.572;2023-03-19T10:00:18;92841.16;;;23.82;39.35
74336;BME280;62755;-33.398;-70.572;2023-03-19T10:03:28;92841.41;;;23.79;39.40
74336;BME280;62755;-33.398;-70.572;2023-03-19T10:06:25;92836.22;;;23.64;39.58
74336;BME280;62755;-33.398;-70.572;2023-03-19T10:09:30;92840.97;;;23.64;39.36
74336;BME280;62755;-33.398;-70.572;2023-03-19T10:12:33;92843.97;;;23.60;38.93
74336;BME280;62755;-33.398;-70.572;2023-03-19T10:15:29;92834.25;;;23.48;38.19
74336;BME280;62755;-33.398;-70.572;2023-03-19T10:18:22;92841.97;;;23.38;37.86
74336;BME280;62755;-33.398;-70.572;2023-03-19T10:21:21;92843.47;;;23.39;37.40
74336;BME280;62755;-33.398;-70.572;2023-03-19T10:24:17;92847.72;;;23.35;37.33
74336;BME280;62755;-33.398;-70.572;2023-03-19T10:27:12;92831.72;;;23.06;37.49
74336;BME280;62755;-33.398;-70.572;2023-03-19T10:30:04;92844.69;;;23.05;37.32
74336;BME280;62755;-33.398;-70.572;2023-03-19T10:33:05;92840.44;;;23.04;38.00
74336;BME280;62755;-33.398;-70.572;2023-03-19T10:35:59;92831.94;;;22.80;38.94
74336;BME280;62755;-33.398;-70.572;2023-03-19T10:38:51;92844.13;;;22.74;39.68
74336;BME280;62755;-33.398;-70.572;2023-03-19T10:41:47;92838.56;;;22.51;39.91
74336;BME280;62755;-33.398;-70.572;2023-03-19T10:44:42;92838.31;;;22.49;39.81
74336;BME280;62755;-33.398;-70.572;2023-03-19T10:47:37;92840.13;;;22.63;39.61
74336;BME280;62755;-33.398;-70.572;2023-03-19T10:50:30;92844.63;;;22.78;39.52
74336;BME280;62755;-33.398;-70.572;2023-03-19T10:53:32;92840.19;;;22.97;38.78
74336;BME280;62755;-33.398;-70.572;2023-03-19T10:56:24;92837.19;;;22.95;39.27
74336;BME280;62755;-33.398;-70.572;2023-03-19T10:59:22;92832.22;;;22.88;39.36
74336;BME280;62755;-33.398;-70.572;2023-03-19T11:02:16;92821.50;;;22.84;38.86
74336;BME280;62755;-33.398;-70.572;2023-03-19T11:05:17;92835.69;;;22.77;38.71
74336;BME280;62755;-33.398;-70.572;2023-03-19T11:08:18;92835.09;;;22.56;38.85
74336;BME280;62755;-33.398;-70.572;2023-03-19T11:11:25;92849.81;;;22.59;38.31
74336;BME280;62755;-33.398;-70.572;2023-03-19T11:14:16;92855.34;;;22.87;38.36
74336;BME280;62755;-33.398;-70.572;2023-03-19T11:17:16;92838.72;;;23.07;37.47
74336;BME280;62755;-33.398;-70.572;2023-03-19T11:20:20;92846.41;;;23.03;37.72
74336;BME280;62755;-33.398;-70.572;2023-03-19T11:23:14;92858.84;;;23.26;37.66
74336;BME280;62755;-33.398;-70.572;2023-03-19T11:26:04;92862.63;;;23.34;37.65
74336;BME280;62755;-33.398;-70.572;2023-03-19T11:29:01;92865.09;;;23.32;36.88
74336;BME280;62755;-33.398;-70.572;2023-03-19T11:31:59;92861.09;;;23.05;37.15
74336;BME280;62755;-33.398;-70.572;2023-03-19T11:34:56;92862.56;;;22.90;37.44
74336;BME280;62755;-33.398;-70.572;2023-03-19T11:37:54;92874.50;;;22.98;37.57
74336;BME280;62755;-33.398;-70.572;2023-03-19T11:40:45;92863.56;;;23.09;37.17
74336;BME280;62755;-33.398;-70.572;2023-03-19T11:43:43;92882.72;;;23.09;37.70
74336;BME280;62755;-33.398;-70.572;2023-03-19T11:46:41;92885.00;;;23.27;37.94
74336;BME280;62755;-33.398;-70.572;2023-03-19T11:49:59;92879.53;;;23.27;37.63
74336;BME280;62755;-33.398;-70.572;2023-03-19T11:53:02;92870.81;;;23.23;36.86
74336;BME280;62755;-33.398;-70.572;2023-03-19T11:56:01;92882.97;;;23.22;36.98
74336;BME280;62755;-33.398;-70.572;2023-03-19T11:59:13;92887.94;;;22.96;36.92
74336;BME280;62755;-33.398;-70.572;2023-03-19T12:05:52;92891.94;;;23.17;37.00
74336;BME280;62755;-33.398;-70.572;2023-03-19T12:08:48;92885.00;;;23.38;36.88
74336;BME280;62755;-33.398;-70.572;2023-03-19T12:11:45;92889.00;;;23.48;36.87
74336;BME280;62755;-33.398;-70.572;2023-03-19T12:14:45;92895.22;;;23.54;37.29
74336;BME280;62755;-33.398;-70.572;2023-03-19T12:17:45;92894.94;;;23.41;37.52
74336;BME280;62755;-33.398;-70.572;2023-03-19T12:20:48;92901.63;;;23.18;37.28
74336;BME280;62755;-33.398;-70.572;2023-03-19T12:23:51;92903.38;;;23.21;37.85
74336;BME280;62755;-33.398;-70.572;2023-03-19T12:26:56;92894.97;;;23.46;37.71
74336;BME280;62755;-33.398;-70.572;2023-03-19T12:29:53;92912.88;;;23.75;37.17
74336;BME280;62755;-33.398;-70.572;2023-03-19T12:32:57;92916.63;;;23.78;37.21
74336;BME280;62755;-33.398;-70.572;2023-03-19T12:35:55;92912.88;;;23.53;37.67
74336;BME280;62755;-33.398;-70.572;2023-03-19T12:38:46;92925.31;;;23.65;37.09
74336;BME280;62755;-33.398;-70.572;2023-03-19T12:41:40;92921.84;;;23.81;37.36
74336;BME280;62755;-33.398;-70.572;2023-03-19T12:44:35;92927.81;;;24.07;36.56
74336;BME280;62755;-33.398;-70.572;2023-03-19T12:47:29;92932.03;;;24.19;36.49
74336;BME280;62755;-33.398;-70.572;2023-03-19T12:50:21;92934.28;;;24.15;35.28
74336;BME280;62755;-33.398;-70.572;2023-03-19T12:53:25;92938.75;;;24.18;35.02
74336;BME280;62755;-33.398;-70.572;2023-03-19T12:56:20;92943.97;;;24.22;34.63
74336;BME280;62755;-33.398;-70.572;2023-03-19T12:59:18;92934.00;;;24.24;34.53
74336;BME280;62755;-33.398;-70.572;2023-03-19T13:02:19;92945.66;;;24.41;33.86
74336;BME280;62755;-33.398;-70.572;2023-03-19T13:05:18;92939.22;;;24.33;34.16
74336;BME280;62755;-33.398;-70.572;2023-03-19T13:08:16;92935.69;;;24.50;34.33
74336;BME280;62755;-33.398;-70.572;2023-03-19T13:11:12;92927.97;;;24.42;34.08
74336;BME280;62755;-33.398;-70.572;2023-03-19T13:14:09;92940.41;;;24.49;33.82
74336;BME280;62755;-33.398;-70.572;2023-03-19T13:17:08;92944.84;;;24.63;33.89
74336;BME280;62755;-33.398;-70.572;2023-03-19T13:20:12;92942.19;;;24.47;34.00
74336;BME280;62755;-33.398;-70.572;2023-03-19T13:23:05;92938.19;;;24.48;34.65
74336;BME280;62755;-33.398;-70.572;2023-03-19T13:25:58;92934.44;;;24.51;34.64
74336;BME280;62755;-33.398;-70.572;2023-03-19T13:28:58;92953.56;;;24.73;34.51
74336;BME280;62755;-33.398;-70.572;2023-03-19T13:31:49;92956.81;;;24.66;35.07
74336;BME280;62755;-33.398;-70.572;2023-03-19T13:34:39;92950.13;;;24.56;34.56
74336;BME280;62755;-33.398;-70.572;2023-03-19T13:37:28;92952.84;;;24.72;34.88
74336;BME280;62755;-33.398;-70.572;2023-03-19T13:40:37;92954.53;;;24.81;34.64
74336;BME280;62755;-33.398;-70.572;2023-03-19T13:43:43;92955.31;;;24.70;35.11
74336;BME280;62755;-33.398;-70.572;2023-03-19T13:46:41;92949.06;;;24.70;35.48
74336;BME280;62755;-33.398;-70.572;2023-03-19T13:49:33;92954.06;;;24.77;36.42
74336;BME280;62755;-33.398;-70.572;2023-03-19T13:52:46;92952.25;;;24.90;36.13
74336;BME280;62755;-33.398;-70.572;2023-03-19T13:55:50;92961.53;;;24.82;36.12
74336;BME280;62755;-33.398;-70.572;2023-03-19T13:58:50;92961.97;;;24.97;36.20
74336;BME280;62755;-33.398;-70.572;2023-03-19T14:01:41;92957.22;;;24.97;36.56
74336;BME280;62755;-33.398;-70.572;2023-03-19T14:04:34;92961.13;;;25.13;36.19
74336;BME280;62755;-33.398;-70.572;2023-03-19T14:07:26;92962.84;;;25.16;36.63
74336;BME280;62755;-33.398;-70.572;2023-03-19T14:10:20;92962.16;;;25.04;36.76
74336;BME280;62755;-33.398;-70.572;2023-03-19T14:13:19;92964.91;;;25.10;37.21
74336;BME280;62755;-33.398;-70.572;2023-03-19T14:16:18;92966.94;;;25.04;37.26
74336;BME280;62755;-33.398;-70.572;2023-03-19T14:19:11;92956.72;;;24.99;36.84
74336;BME280;62755;-33.398;-70.572;2023-03-19T14:22:09;92969.38;;;25.13;36.52
74336;BME280;62755;-33.398;-70.572;2023-03-19T14:25:12;92958.63;;;25.15;36.63
74336;BME280;62755;-33.398;-70.572;2023-03-19T14:28:09;92958.59;;;25.20;36.98
74336;BME280;62755;-33.398;-70.572;2023-03-19T14:30:58;92957.59;;;25.23;36.83
74336;BME280;62755;-33.398;-70.572;2023-03-19T14:33:54;92960.25;;;25.40;36.61
74336;BME280;62755;-33.398;-70.572;2023-03-19T14:36:49;92944.72;;;25.48;35.96
74336;BME280;62755;-33.398;-70.572;2023-03-19T14:39:42;92962.59;;;25.66;36.13
74336;BME280;62755;-33.398;-70.572;2023-03-19T14:42:37;92961.06;;;25.70;35.50